createdAt,value
2019-03-24T00:00:08.077Z,4.10
2019-03-24T00:02:36.951Z,4.10
2019-03-24T00:05:06.763Z,4.00
2019-03-24T00:07:35.636Z,4.00
2019-03-24T00:10:07.088Z,4.00
2019-03-24T00:12:35.931Z,4.00
2019-03-24T00:15:07.338Z,4.00
2019-03-24T00:17:36.187Z,3.90
2019-03-24T00:20:07.187Z,3.90
2019-03-24T00:22:35.945Z,3.90
2019-03-24T00:25:06.728Z,3.80
2019-03-24T00:27:35.596Z,3.80
2019-03-24T00:30:07.054Z,3.80
2019-03-24T00:32:35.946Z,3.80
2019-03-24T00:35:06.689Z,3.70
2019-03-24T00:37:35.495Z,3.70
2019-03-24T00:40:07.981Z,3.70
2019-03-24T00:42:36.825Z,3.60
2019-03-24T00:45:07.710Z,3.60
2019-03-24T00:47:36.497Z,3.60
2019-03-24T00:50:06.938Z,3.60
2019-03-24T00:52:35.767Z,3.60
2019-03-24T00:55:08.406Z,3.50
2019-03-24T00:57:37.758Z,3.60
2019-03-24T01:00:09.375Z,3.50
2019-03-24T01:02:38.529Z,3.50
2019-03-24T01:05:08.303Z,3.50
2019-03-24T01:07:37.112Z,3.50
2019-03-24T01:10:08.527Z,3.40
2019-03-24T01:12:37.361Z,3.40
2019-03-24T01:15:08.141Z,3.40
2019-03-24T01:17:38.259Z,3.30
2019-03-24T01:20:08.631Z,3.30
2019-03-24T01:22:37.486Z,3.40
2019-03-24T01:25:06.558Z,3.40
2019-03-24T01:27:35.477Z,3.40
2019-03-24T01:30:07.673Z,3.40
2019-03-24T01:32:36.472Z,3.30
2019-03-24T01:35:06.806Z,3.30
2019-03-24T01:37:35.574Z,3.20
2019-03-24T01:40:08.110Z,3.20
2019-03-24T01:42:36.920Z,3.20
2019-03-24T01:45:08.807Z,3.10
2019-03-24T01:47:37.657Z,3.10
2019-03-24T01:50:07.827Z,3.10
2019-03-24T01:52:36.624Z,3.10
2019-03-24T01:55:06.507Z,3.10
2019-03-24T01:57:35.384Z,3.10
2019-03-24T02:00:08.283Z,3.10
2019-03-24T02:02:37.096Z,3.10
2019-03-24T02:05:07.934Z,3.10
2019-03-24T02:07:36.749Z,3.10
2019-03-24T02:10:07.887Z,3.00
2019-03-24T02:12:36.714Z,3.00
2019-03-24T02:15:09.881Z,3.00
2019-03-24T02:17:38.695Z,3.00
2019-03-24T02:20:08.190Z,3.00
2019-03-24T02:22:36.967Z,3.00
2019-03-24T02:25:07.218Z,3.00
2019-03-24T02:27:36.054Z,3.00
2019-03-24T02:30:07.480Z,2.90
2019-03-24T02:32:36.322Z,2.90
2019-03-24T02:35:06.769Z,2.90
2019-03-24T02:37:36.113Z,2.90
2019-03-24T02:40:07.963Z,2.90
2019-03-24T02:42:36.754Z,2.90
2019-03-24T02:45:07.391Z,2.90
2019-03-24T02:47:36.143Z,2.90
2019-03-24T02:50:06.447Z,2.90
2019-03-24T02:52:35.275Z,2.90
2019-03-24T02:55:06.269Z,2.90
2019-03-24T02:57:35.014Z,2.80
2019-03-24T03:00:06.264Z,2.80
2019-03-24T03:02:35.049Z,2.80
2019-03-24T03:05:05.190Z,2.80
2019-03-24T03:07:33.963Z,2.90
2019-03-24T03:10:03.011Z,2.80
2019-03-24T03:12:31.808Z,2.80
2019-03-24T03:15:00.622Z,2.80
2019-03-24T03:17:29.442Z,2.80
2019-03-24T03:19:58.215Z,2.80
2019-03-24T03:22:26.987Z,2.80
2019-03-24T03:24:55.825Z,2.80
2019-03-24T03:27:24.684Z,2.80
2019-03-24T03:29:53.532Z,2.80
2019-03-24T03:32:22.347Z,2.80
2019-03-24T03:34:51.120Z,2.80
2019-03-24T03:37:19.964Z,2.80
2019-03-24T03:39:48.758Z,2.80
2019-03-24T03:42:17.576Z,2.80
2019-03-24T03:44:47.689Z,2.80
2019-03-24T03:47:16.470Z,2.70
2019-03-24T03:49:45.297Z,2.70
2019-03-24T03:52:14.071Z,2.70
2019-03-24T03:54:42.931Z,2.70
2019-03-24T03:57:11.726Z,2.70
2019-03-24T03:59:40.555Z,2.70
2019-03-24T04:02:09.327Z,2.70
2019-03-24T04:04:38.142Z,2.70
2019-03-24T04:07:06.940Z,2.70
2019-03-24T04:09:35.740Z,2.60
2019-03-24T04:12:04.548Z,2.60
2019-03-24T04:14:33.374Z,2.60
2019-03-24T04:17:07.614Z,2.60
2019-03-24T04:19:32.650Z,2.60
2019-03-24T04:22:01.422Z,2.60
2019-03-24T04:24:30.257Z,2.60
2019-03-24T04:26:59.019Z,2.60
2019-03-24T04:29:27.814Z,2.70
2019-03-24T04:31:56.605Z,2.70
2019-03-24T04:34:25.386Z,2.80
2019-03-24T04:36:54.171Z,2.80
2019-03-24T04:39:23.016Z,2.90
2019-03-24T04:41:51.834Z,3.20
2019-03-24T04:44:20.693Z,3.60
2019-03-24T04:46:49.496Z,4.20
2019-03-24T04:49:18.313Z,5.00
2019-03-24T04:51:47.165Z,5.90
2019-03-24T04:54:15.944Z,6.90
2019-03-24T04:56:44.735Z,8.00
2019-03-24T04:59:13.509Z,9.00
2019-03-24T05:01:43.218Z,9.80
2019-03-24T05:04:12.031Z,10.50
2019-03-24T05:06:42.172Z,11.20
2019-03-24T05:09:11.023Z,11.90
2019-03-24T05:11:39.801Z,12.50
2019-03-24T05:14:08.731Z,12.90
2019-03-24T05:16:37.571Z,13.70
2019-03-24T05:19:06.383Z,14.50
2019-03-24T05:21:35.204Z,15.10
2019-03-24T05:24:03.951Z,15.70
2019-03-24T05:26:32.787Z,16.30
2019-03-24T05:29:01.555Z,16.80
2019-03-24T05:31:30.381Z,17.40
2019-03-24T05:33:59.238Z,18.00
2019-03-24T05:36:28.055Z,18.40
2019-03-24T05:38:56.870Z,18.60
2019-03-24T05:41:25.622Z,18.90
2019-03-24T05:43:54.454Z,19.10
2019-03-24T05:46:23.260Z,19.70
2019-03-24T05:48:52.034Z,20.00
2019-03-24T05:51:20.871Z,20.60
2019-03-24T05:53:49.696Z,21.30
2019-03-24T05:56:22.909Z,21.80
2019-03-24T05:58:51.711Z,21.80
2019-03-24T06:01:20.549Z,22.10
2019-03-24T06:03:49.424Z,22.30
2019-03-24T06:06:18.202Z,22.80
2019-03-24T06:08:46.978Z,23.00
2019-03-24T06:11:15.762Z,22.70
2019-03-24T06:13:44.585Z,22.40
2019-03-24T06:16:13.422Z,22.40
2019-03-24T06:18:42.291Z,22.60
2019-03-24T06:21:11.078Z,22.90
2019-03-24T06:23:39.897Z,22.70
2019-03-24T06:26:08.739Z,22.80
2019-03-24T06:28:37.559Z,22.70
2019-03-24T06:31:06.393Z,22.80
2019-03-24T06:33:35.237Z,22.80
2019-03-24T06:36:04.010Z,22.60
2019-03-24T06:38:32.860Z,22.80
2019-03-24T06:41:01.840Z,23.10
2019-03-24T06:43:30.685Z,23.50
2019-03-24T06:45:59.578Z,23.90
2019-03-24T06:48:28.342Z,24.20
2019-03-24T06:50:57.143Z,23.70
2019-03-24T06:53:25.968Z,23.30
2019-03-24T06:55:54.793Z,23.30
2019-03-24T06:58:23.573Z,23.10
2019-03-24T07:00:52.340Z,22.80
2019-03-24T07:03:21.146Z,23.20
2019-03-24T07:05:50.069Z,23.60
2019-03-24T07:08:18.852Z,23.80
2019-03-24T07:10:47.721Z,24.40
2019-03-24T07:13:16.630Z,24.40
2019-03-24T07:15:45.430Z,24.60
2019-03-24T07:18:14.293Z,24.50
2019-03-24T07:20:43.182Z,24.30
2019-03-24T07:23:11.942Z,23.90
2019-03-24T07:25:40.741Z,24.00
2019-03-24T07:28:09.593Z,24.30
2019-03-24T07:30:38.457Z,24.90
2019-03-24T07:33:07.231Z,25.00
2019-03-24T07:35:36.092Z,24.90
2019-03-24T07:38:04.860Z,25.00
2019-03-24T07:40:33.736Z,25.20
2019-03-24T07:43:02.639Z,25.60
2019-03-24T07:45:31.446Z,25.50
2019-03-24T07:48:00.211Z,24.50
2019-03-24T07:50:28.985Z,24.30
2019-03-24T07:52:57.808Z,24.90
2019-03-24T07:55:26.708Z,25.20
2019-03-24T07:57:55.557Z,25.50
2019-03-24T08:00:35.464Z,25.30
2019-03-24T08:03:04.672Z,24.70
2019-03-24T08:05:33.435Z,24.30
2019-03-24T08:08:02.264Z,24.20
2019-03-24T08:10:31.039Z,24.20
2019-03-24T08:12:59.938Z,24.00
2019-03-24T08:15:28.735Z,23.90
2019-03-24T08:17:57.480Z,24.10
2019-03-24T08:20:26.381Z,24.40
2019-03-24T08:22:55.202Z,24.60
2019-03-24T08:25:24.075Z,24.50
2019-03-24T08:27:52.883Z,24.30
2019-03-24T08:30:30.422Z,24.60
2019-03-24T08:32:59.490Z,24.60
2019-03-24T08:35:28.370Z,24.80
2019-03-24T08:37:57.269Z,24.80
2019-03-24T08:40:26.046Z,24.60
2019-03-24T08:42:54.803Z,24.30
2019-03-24T08:45:30.686Z,24.00
2019-03-24T08:47:59.777Z,23.60
2019-03-24T08:50:28.680Z,23.30
2019-03-24T08:52:57.525Z,22.90
2019-03-24T08:55:26.340Z,21.80
2019-03-24T08:57:55.254Z,21.10
2019-03-24T09:00:30.645Z,19.70
2019-03-24T09:02:54.491Z,18.20
2019-03-24T09:05:23.413Z,16.80
2019-03-24T09:07:52.417Z,15.60
2019-03-24T09:10:21.194Z,14.60
2019-03-24T09:12:49.995Z,13.90
2019-03-24T09:15:19.489Z,13.20
2019-03-24T09:17:48.399Z,12.70
2019-03-24T09:20:17.177Z,12.30
2019-03-24T09:22:46.098Z,11.90
2019-03-24T09:25:15.110Z,11.60
2019-03-24T09:27:44.187Z,11.50
2019-03-24T09:30:27.605Z,11.30
2019-03-24T09:32:56.396Z,11.10
2019-03-24T09:35:25.307Z,11.10
2019-03-24T09:37:54.191Z,11.20
2019-03-24T09:40:27.813Z,11.30
2019-03-24T09:42:59.279Z,11.30
2019-03-24T09:45:28.573Z,11.30
2019-03-24T09:47:57.452Z,11.20
2019-03-24T09:50:26.252Z,11.20
2019-03-24T09:52:55.124Z,11.10
2019-03-24T09:55:23.964Z,11.10
2019-03-24T09:57:52.707Z,11.10
2019-03-24T10:00:21.589Z,11.10
2019-03-24T10:02:50.454Z,11.20
2019-03-24T10:05:19.212Z,11.20
2019-03-24T10:07:48.247Z,11.20
2019-03-24T10:10:17.049Z,11.10
2019-03-24T10:12:45.865Z,11.00
2019-03-24T10:15:14.936Z,11.00
2019-03-24T10:17:43.859Z,10.90
2019-03-24T10:20:12.984Z,10.90
2019-03-24T10:22:41.798Z,11.00
2019-03-24T10:25:10.586Z,10.90
2019-03-24T10:27:39.592Z,10.90
2019-03-24T10:30:08.833Z,10.90
2019-03-24T10:32:37.659Z,10.90
2019-03-24T10:35:07.268Z,10.90
2019-03-24T10:37:36.134Z,10.90
2019-03-24T10:40:06.407Z,11.00
2019-03-24T10:42:35.280Z,10.90
2019-03-24T10:45:05.663Z,10.90
2019-03-24T10:47:34.458Z,10.90
2019-03-24T10:50:03.696Z,10.90
2019-03-24T10:52:32.540Z,10.80
2019-03-24T10:55:01.411Z,10.80
2019-03-24T10:57:30.218Z,10.80
2019-03-24T10:59:59.075Z,10.80
2019-03-24T11:02:27.869Z,10.70
2019-03-24T11:04:56.809Z,10.60
2019-03-24T11:07:25.762Z,10.50
2019-03-24T11:09:54.641Z,10.50
2019-03-24T11:12:23.436Z,10.50
2019-03-24T11:14:52.294Z,10.50
2019-03-24T11:17:22.246Z,10.40
2019-03-24T11:19:51.004Z,10.30
2019-03-24T11:22:19.827Z,10.40
2019-03-24T11:24:48.722Z,10.50
2019-03-24T11:27:17.556Z,10.50
2019-03-24T11:29:46.911Z,10.60
2019-03-24T11:32:15.751Z,10.60
2019-03-24T11:34:44.612Z,10.60
2019-03-24T11:37:13.547Z,10.70
2019-03-24T11:39:42.395Z,10.80
2019-03-24T11:42:11.215Z,10.80
2019-03-24T11:44:40.101Z,10.80
2019-03-24T11:47:08.996Z,10.80
2019-03-24T11:49:45.693Z,10.80
2019-03-24T11:52:08.317Z,10.90
2019-03-24T11:54:37.094Z,10.80
2019-03-24T11:57:05.848Z,10.80
2019-03-24T11:59:34.735Z,10.90
2019-03-24T12:02:03.640Z,10.90
2019-03-24T12:04:32.580Z,10.90
2019-03-24T12:07:01.502Z,10.90
2019-03-24T12:09:30.242Z,10.80
2019-03-24T12:11:59.147Z,10.80
2019-03-24T12:14:27.981Z,10.70
2019-03-24T12:16:56.939Z,10.70
2019-03-24T12:19:25.782Z,10.70
2019-03-24T12:21:54.595Z,10.70
2019-03-24T12:24:23.413Z,10.60
2019-03-24T12:26:52.301Z,10.60
2019-03-24T12:29:21.108Z,10.60
2019-03-24T12:31:49.900Z,10.60
2019-03-24T12:34:18.796Z,10.60
2019-03-24T12:36:47.613Z,10.50
2019-03-24T12:39:16.487Z,10.50
2019-03-24T12:41:45.359Z,10.50
2019-03-24T12:44:14.232Z,10.30
2019-03-24T12:46:43.042Z,10.10
2019-03-24T12:49:11.816Z,9.90
2019-03-24T12:51:40.699Z,9.70
2019-03-24T12:54:09.471Z,9.60
2019-03-24T12:56:38.259Z,9.60
2019-03-24T12:59:07.147Z,9.60
2019-03-24T13:01:35.959Z,9.60
2019-03-24T13:04:04.718Z,9.50
2019-03-24T13:06:33.495Z,9.50
2019-03-24T13:09:02.467Z,9.50
2019-03-24T13:11:31.311Z,9.40
2019-03-24T13:14:00.102Z,9.50
2019-03-24T13:16:28.937Z,9.50
2019-03-24T13:18:57.744Z,9.40
2019-03-24T13:21:26.547Z,9.40
2019-03-24T13:23:55.376Z,9.40
2019-03-24T13:26:24.209Z,9.40
2019-03-24T13:28:53.009Z,9.40
2019-03-24T13:31:21.779Z,9.40
2019-03-24T13:33:50.561Z,9.40
2019-03-24T13:36:19.418Z,9.40
2019-03-24T13:38:48.229Z,9.40
2019-03-24T13:41:17.102Z,9.30
2019-03-24T13:43:46.028Z,9.30
2019-03-24T13:46:16.485Z,9.20
2019-03-24T13:48:45.345Z,9.10
2019-03-24T13:51:14.145Z,9.10
2019-03-24T13:53:42.971Z,9.10
2019-03-24T13:56:11.758Z,9.10
2019-03-24T13:58:40.495Z,9.10
2019-03-24T14:01:10.266Z,9.10
2019-03-24T14:03:39.042Z,9.10
2019-03-24T14:06:07.947Z,9.00
2019-03-24T14:08:36.848Z,9.10
2019-03-24T14:11:05.956Z,9.10
2019-03-24T14:13:34.867Z,9.10
2019-03-24T14:16:03.710Z,9.10
2019-03-24T14:18:36.178Z,9.10
2019-03-24T14:21:05.045Z,9.00
2019-03-24T14:23:33.955Z,8.90
2019-03-24T14:26:02.740Z,8.90
2019-03-24T14:28:31.564Z,8.90
2019-03-24T14:31:02.281Z,8.90
2019-03-24T14:33:30.879Z,8.90
2019-03-24T14:35:59.703Z,8.80
2019-03-24T14:38:28.478Z,8.80
2019-03-24T14:40:57.390Z,8.70
2019-03-24T14:43:26.225Z,8.70
2019-03-24T14:45:57.728Z,8.70
2019-03-24T14:48:26.546Z,8.60
2019-03-24T14:50:55.443Z,8.60
2019-03-24T14:53:24.254Z,8.60
2019-03-24T14:55:53.141Z,8.50
2019-03-24T14:58:22.029Z,8.50
2019-03-24T15:00:50.812Z,8.50
2019-03-24T15:03:21.853Z,8.40
2019-03-24T15:05:50.678Z,8.40
2019-03-24T15:08:19.562Z,8.40
2019-03-24T15:10:51.015Z,8.30
2019-03-24T15:13:19.876Z,8.30
2019-03-24T15:15:48.753Z,8.30
2019-03-24T15:18:17.560Z,8.20
2019-03-24T15:20:46.405Z,8.20
2019-03-24T15:23:15.240Z,8.10
2019-03-24T15:25:44.148Z,8.10
2019-03-24T15:28:13.019Z,8.10
2019-03-24T15:30:41.927Z,8.00
2019-03-24T15:33:10.808Z,8.00
2019-03-24T15:35:39.608Z,8.00
2019-03-24T15:38:09.065Z,7.90
2019-03-24T15:40:38.034Z,7.90
2019-03-24T15:43:06.763Z,7.90
2019-03-24T15:45:35.566Z,7.90
2019-03-24T15:48:04.459Z,7.80
2019-03-24T15:50:33.294Z,7.80
2019-03-24T15:53:02.129Z,7.70
2019-03-24T15:55:31.179Z,7.70
2019-03-24T15:58:00.172Z,7.60
2019-03-24T16:00:43.502Z,7.50
2019-03-24T16:03:12.399Z,7.50
2019-03-24T16:05:41.256Z,7.40
2019-03-24T16:08:10.044Z,7.40
2019-03-24T16:10:39.077Z,7.40
2019-03-24T16:15:56.948Z,7.30
2019-03-24T16:18:25.730Z,7.20
2019-03-24T16:20:54.614Z,7.10
2019-03-24T16:23:23.512Z,7.00
2019-03-24T16:25:52.259Z,6.90
2019-03-24T16:28:21.146Z,6.80
2019-03-24T16:30:49.927Z,6.70
2019-03-24T16:33:18.771Z,6.70
2019-03-24T16:35:47.670Z,6.60
2019-03-24T16:38:16.668Z,6.50
2019-03-24T16:40:49.985Z,6.40
2019-03-24T16:43:18.774Z,6.40
2019-03-24T16:45:47.656Z,6.30
2019-03-24T16:48:16.465Z,6.20
2019-03-24T16:54:38.697Z,6.10
2019-03-24T16:57:07.557Z,6.00
2019-03-24T16:59:36.379Z,5.90
2019-03-24T17:02:05.195Z,5.80
2019-03-24T17:04:34.134Z,5.80
2019-03-24T17:07:03.137Z,5.80
2019-03-24T17:09:31.895Z,5.80
2019-03-24T17:12:00.823Z,5.90
2019-03-24T17:14:29.580Z,6.00
2019-03-24T17:16:58.716Z,6.00
2019-03-24T17:19:27.579Z,6.00
2019-03-24T17:21:56.424Z,6.00
2019-03-24T17:24:25.258Z,6.00
2019-03-24T17:26:54.036Z,6.00
2019-03-24T17:29:22.851Z,6.00
2019-03-24T17:31:51.671Z,6.00
2019-03-24T17:34:20.503Z,5.90
2019-03-24T17:36:49.314Z,5.90
2019-03-24T17:39:18.088Z,5.80
2019-03-24T17:41:46.974Z,5.80
2019-03-24T17:44:17.288Z,5.80
2019-03-24T17:46:46.102Z,5.70
2019-03-24T17:49:14.862Z,5.70
2019-03-24T17:51:43.612Z,5.70
2019-03-24T17:54:13.537Z,5.60
2019-03-24T17:56:42.308Z,5.60
2019-03-24T17:59:11.092Z,5.50
2019-03-24T18:01:39.994Z,5.50
2019-03-24T18:04:08.840Z,5.50
2019-03-24T18:06:37.693Z,5.50
2019-03-24T18:09:08.229Z,5.40
2019-03-24T18:11:37.142Z,5.40
2019-03-24T18:14:05.974Z,5.40
2019-03-24T18:16:34.857Z,5.30
2019-03-24T18:19:03.774Z,5.20
2019-03-24T18:21:32.546Z,5.20
2019-03-24T18:24:01.431Z,5.20
2019-03-24T18:26:30.206Z,5.10
2019-03-24T18:28:59.010Z,5.10
2019-03-24T18:31:27.807Z,5.10
2019-03-24T18:33:56.647Z,5.10
2019-03-24T18:36:25.527Z,5.10
2019-03-24T18:38:54.407Z,5.10
2019-03-24T18:41:23.215Z,5.00
2019-03-24T18:43:52.043Z,5.00
2019-03-24T18:46:20.935Z,5.00
2019-03-24T18:48:49.831Z,4.90
2019-03-24T18:51:18.706Z,4.90
2019-03-24T18:53:47.575Z,4.90
2019-03-24T18:56:16.549Z,4.80
2019-03-24T18:58:45.299Z,4.80
2019-03-24T19:01:14.151Z,4.80
2019-03-24T19:03:43.050Z,4.80
2019-03-24T19:06:11.796Z,4.80
2019-03-24T19:08:42.087Z,4.80
2019-03-24T19:11:10.941Z,4.80
2019-03-24T19:13:39.883Z,4.90
2019-03-24T19:16:08.711Z,4.90
2019-03-24T19:18:37.638Z,4.90
2019-03-24T19:21:06.428Z,4.90
2019-03-24T19:23:35.308Z,4.80
2019-03-24T19:26:04.160Z,4.80
2019-03-24T19:28:34.495Z,4.80
2019-03-24T19:31:03.475Z,4.80
2019-03-24T19:33:32.199Z,4.80
2019-03-24T19:36:01.628Z,4.80
2019-03-24T19:38:33.694Z,4.70
2019-03-24T19:41:02.559Z,4.70
2019-03-24T19:43:31.459Z,4.60
2019-03-24T19:46:00.285Z,4.60
2019-03-24T19:48:31.814Z,4.60
2019-03-24T19:51:00.603Z,4.60
2019-03-24T19:53:29.374Z,4.60
2019-03-24T19:55:58.191Z,4.50
2019-03-24T19:58:26.964Z,4.50
2019-03-24T20:00:55.736Z,4.50
2019-03-24T20:03:24.639Z,4.50
2019-03-24T20:05:56.143Z,4.40
2019-03-24T20:08:24.946Z,4.40
2019-03-24T20:10:56.433Z,4.40
2019-03-24T20:13:25.276Z,4.30
2019-03-24T20:15:54.037Z,4.30
2019-03-24T20:18:22.892Z,4.30
2019-03-24T20:20:52.187Z,4.30
2019-03-24T20:23:21.221Z,4.30
2019-03-24T20:25:50.098Z,4.30
2019-03-24T20:28:18.901Z,4.30
2019-03-24T20:30:47.801Z,4.20
2019-03-24T20:33:16.586Z,4.30
2019-03-24T20:35:45.349Z,4.20
2019-03-24T20:38:20.162Z,4.20
2019-03-24T20:40:48.951Z,4.20
2019-03-24T20:43:17.695Z,4.20
2019-03-24T20:45:46.595Z,4.20
2019-03-24T20:48:15.367Z,4.10
2019-03-24T20:50:44.140Z,4.10
2019-03-24T20:53:18.097Z,4.10
2019-03-24T20:55:43.559Z,4.10
2019-03-24T20:58:12.439Z,4.00
2019-03-24T21:00:41.314Z,4.00
2019-03-24T21:03:10.226Z,4.00
2019-03-24T21:05:39.070Z,3.90
2019-03-24T21:08:07.894Z,3.90
2019-03-24T21:10:36.784Z,3.90
2019-03-24T21:13:05.770Z,3.90
2019-03-24T21:15:34.605Z,3.80
2019-03-24T21:18:03.520Z,3.80
2019-03-24T21:20:32.282Z,3.80
2019-03-24T21:23:01.147Z,3.80
2019-03-24T21:25:29.952Z,3.70
2019-03-24T21:27:59.044Z,3.70
2019-03-24T21:30:33.023Z,3.60
2019-03-24T21:33:02.254Z,3.60
2019-03-24T21:35:31.108Z,3.60
2019-03-24T21:37:59.975Z,3.50
2019-03-24T21:40:28.775Z,3.50
2019-03-24T21:42:57.592Z,3.50
2019-03-24T21:45:26.456Z,3.40
2019-03-24T21:47:55.265Z,3.40
2019-03-24T21:50:24.037Z,3.30
2019-03-24T21:52:52.891Z,3.30
2019-03-24T21:55:21.690Z,3.30
2019-03-24T21:57:57.380Z,3.30
2019-03-24T22:00:32.032Z,3.20
2019-03-24T22:03:00.933Z,3.20
2019-03-24T22:05:29.672Z,3.20
2019-03-24T22:07:58.447Z,3.20
2019-03-24T22:10:27.253Z,3.10
2019-03-24T22:12:56.126Z,3.10
2019-03-24T22:15:29.269Z,3.10
2019-03-24T22:17:58.188Z,3.10
2019-03-24T22:20:26.941Z,3.10
2019-03-24T22:22:55.751Z,3.10
2019-03-24T22:25:24.669Z,3.10
2019-03-24T22:27:53.502Z,3.10
2019-03-24T22:30:22.254Z,3.10
2019-03-24T22:32:51.052Z,3.20
2019-03-24T22:35:19.890Z,3.20
2019-03-24T22:37:50.659Z,3.20
2019-03-24T22:40:19.160Z,3.20
2019-03-24T22:42:47.925Z,3.20
2019-03-24T22:45:16.783Z,3.30
2019-03-24T22:47:45.623Z,3.30
2019-03-24T22:50:14.407Z,3.30
2019-03-24T22:52:43.188Z,3.30
2019-03-24T22:55:12.206Z,3.30
2019-03-24T22:57:40.971Z,3.30
2019-03-24T23:00:13.953Z,3.30
2019-03-24T23:02:42.958Z,3.40
2019-03-24T23:05:11.844Z,3.40
2019-03-24T23:07:40.742Z,3.40
2019-03-24T23:10:09.855Z,3.30
2019-03-24T23:12:38.590Z,3.40
2019-03-24T23:15:07.981Z,3.40
2019-03-24T23:17:36.901Z,3.40
2019-03-24T23:20:07.190Z,3.40
2019-03-24T23:22:35.982Z,3.30
2019-03-24T23:25:06.623Z,3.30
2019-03-24T23:27:35.582Z,3.30
2019-03-24T23:30:08.217Z,3.30
2019-03-24T23:32:37.117Z,3.20
2019-03-24T23:35:07.612Z,3.10
2019-03-24T23:37:36.420Z,3.10
2019-03-24T23:40:09.306Z,3.10
2019-03-24T23:42:38.078Z,3.00
2019-03-24T23:45:08.655Z,3.00
2019-03-24T23:47:37.413Z,2.90
2019-03-24T23:50:09.152Z,2.80
2019-03-24T23:52:37.998Z,2.80
2019-03-24T23:55:07.117Z,2.80
2019-03-24T23:57:35.920Z,2.80
